sensor_id;sensor_type;location;lat;lon;timestamp;temperature;humidity
5027;DHT22;2532;52.480;13.354;2022-07-29T00:01:48;19.80;61.50
5027;DHT22;2532;52.480;13.354;2022-07-29T00:04:14;19.80;61.80
5027;DHT22;2532;52.480;13.354;2022-07-29T00:06:41;19.70;62.10
5027;DHT22;2532;52.480;13.354;2022-07-29T00:09:09;19.70;62.50
5027;DHT22;2532;52.480;13.354;2022-07-29T00:11:36;19.60;62.80
5027;DHT22;2532;52.480;13.354;2022-07-29T00:14:03;19.60;63.10
5027;DHT22;2532;52.480;13.354;2022-07-29T00:16:30;19.60;63.70
5027;DHT22;2532;52.480;13.354;2022-07-29T00:18:57;19.50;64.00
5027;DHT22;2532;52.480;13.354;2022-07-29T00:21:24;19.50;64.40
5027;DHT22;2532;52.480;13.354;2022-07-29T00:23:50;19.50;64.90
5027;DHT22;2532;52.480;13.354;2022-07-29T00:26:19;19.40;65.20
5027;DHT22;2532;52.480;13.354;2022-07-29T00:28:45;19.40;65.60
5027;DHT22;2532;52.480;13.354;2022-07-29T00:31:12;19.30;65.90
5027;DHT22;2532;52.480;13.354;2022-07-29T00:33:39;19.20;66.40
5027;DHT22;2532;52.480;13.354;2022-07-29T00:36:06;19.20;66.80
5027;DHT22;2532;52.480;13.354;2022-07-29T00:38:32;19.20;67.30
5027;DHT22;2532;52.480;13.354;2022-07-29T00:40:59;19.20;67.60
5027;DHT22;2532;52.480;13.354;2022-07-29T00:43:27;19.20;68.10
5027;DHT22;2532;52.480;13.354;2022-07-29T00:45:54;19.10;68.30
5027;DHT22;2532;52.480;13.354;2022-07-29T00:48:21;19.10;68.70
5027;DHT22;2532;52.480;13.354;2022-07-29T00:50:49;19.10;69.10
5027;DHT22;2532;52.480;13.354;2022-07-29T00:53:16;19.10;69.60
5027;DHT22;2532;52.480;13.354;2022-07-29T00:55:43;19.00;69.90
5027;DHT22;2532;52.480;13.354;2022-07-29T00:58:12;19.00;70.20
5027;DHT22;2532;52.480;13.354;2022-07-29T01:00:40;19.00;70.50
5027;DHT22;2532;52.480;13.354;2022-07-29T01:03:10;19.00;70.80
5027;DHT22;2532;52.480;13.354;2022-07-29T01:05:37;19.00;71.20
5027;DHT22;2532;52.480;13.354;2022-07-29T01:08:05;19.00;71.40
5027;DHT22;2532;52.480;13.354;2022-07-29T01:10:32;19.00;71.70
5027;DHT22;2532;52.480;13.354;2022-07-29T01:13:00;19.00;72.10
5027;DHT22;2532;52.480;13.354;2022-07-29T01:15:28;18.90;72.20
5027;DHT22;2532;52.480;13.354;2022-07-29T01:18:01;18.90;72.50
5027;DHT22;2532;52.480;13.354;2022-07-29T01:20:40;18.90;72.70
5027;DHT22;2532;52.480;13.354;2022-07-29T01:23:37;18.90;73.00
5027;DHT22;2532;52.480;13.354;2022-07-29T01:26:31;18.90;73.10
5027;DHT22;2532;52.480;13.354;2022-07-29T01:29:06;18.90;73.30
5027;DHT22;2532;52.480;13.354;2022-07-29T01:31:42;18.90;73.50
5027;DHT22;2532;52.480;13.354;2022-07-29T01:34:19;18.80;73.60
5027;DHT22;2532;52.480;13.354;2022-07-29T01:36:51;18.80;73.90
5027;DHT22;2532;52.480;13.354;2022-07-29T01:39:23;18.80;74.20
5027;DHT22;2532;52.480;13.354;2022-07-29T01:41:58;18.80;74.40
5027;DHT22;2532;52.480;13.354;2022-07-29T01:44:31;18.70;74.60
5027;DHT22;2532;52.480;13.354;2022-07-29T01:47:05;18.70;75.60
5027;DHT22;2532;52.480;13.354;2022-07-29T01:49:41;18.70;75.20
5027;DHT22;2532;52.480;13.354;2022-07-29T01:52:11;18.60;75.30
5027;DHT22;2532;52.480;13.354;2022-07-29T01:54:42;18.60;75.60
5027;DHT22;2532;52.480;13.354;2022-07-29T01:57:14;18.60;75.60
5027;DHT22;2532;52.480;13.354;2022-07-29T01:59:45;18.60;75.80
5027;DHT22;2532;52.480;13.354;2022-07-29T02:02:14;18.50;75.90
5027;DHT22;2532;52.480;13.354;2022-07-29T02:04:43;18.60;76.20
5027;DHT22;2532;52.480;13.354;2022-07-29T02:07:15;18.50;76.20
5027;DHT22;2532;52.480;13.354;2022-07-29T02:09:43;18.50;76.40
5027;DHT22;2532;52.480;13.354;2022-07-29T02:12:11;18.40;76.50
5027;DHT22;2532;52.480;13.354;2022-07-29T02:14:44;18.50;76.60
5027;DHT22;2532;52.480;13.354;2022-07-29T02:17:13;18.40;76.70
5027;DHT22;2532;52.480;13.354;2022-07-29T02:19:44;18.50;76.90
5027;DHT22;2532;52.480;13.354;2022-07-29T02:22:12;18.40;76.90
5027;DHT22;2532;52.480;13.354;2022-07-29T02:24:40;18.40;77.00
5027;DHT22;2532;52.480;13.354;2022-07-29T02:27:08;18.40;77.00
5027;DHT22;2532;52.480;13.354;2022-07-29T02:29:37;18.40;77.20
5027;DHT22;2532;52.480;13.354;2022-07-29T02:32:07;18.40;77.20
5027;DHT22;2532;52.480;13.354;2022-07-29T02:34:38;18.40;77.30
5027;DHT22;2532;52.480;13.354;2022-07-29T02:37:08;18.40;77.50
5027;DHT22;2532;52.480;13.354;2022-07-29T02:39:36;18.40;77.50
5027;DHT22;2532;52.480;13.354;2022-07-29T02:42:07;18.30;77.50
5027;DHT22;2532;52.480;13.354;2022-07-29T02:44:34;18.30;78.40
5027;DHT22;2532;52.480;13.354;2022-07-29T02:47:07;18.30;77.80
5027;DHT22;2532;52.480;13.354;2022-07-29T02:49:38;18.30;77.80
5027;DHT22;2532;52.480;13.354;2022-07-29T02:52:14;18.30;77.80
5027;DHT22;2532;52.480;13.354;2022-07-29T02:54:46;18.30;77.90
5027;DHT22;2532;52.480;13.354;2022-07-29T02:57:20;18.30;78.70
5027;DHT22;2532;52.480;13.354;2022-07-29T02:59:50;18.30;78.00
5027;DHT22;2532;52.480;13.354;2022-07-29T03:02:18;18.30;78.00
5027;DHT22;2532;52.480;13.354;2022-07-29T03:04:46;18.30;78.10
5027;DHT22;2532;52.480;13.354;2022-07-29T03:07:15;18.30;78.00
5027;DHT22;2532;52.480;13.354;2022-07-29T03:09:45;18.30;78.00
5027;DHT22;2532;52.480;13.354;2022-07-29T03:12:14;18.30;78.10
5027;DHT22;2532;52.480;13.354;2022-07-29T03:14:41;18.30;78.10
5027;DHT22;2532;52.480;13.354;2022-07-29T03:17:09;18.20;78.00
5027;DHT22;2532;52.480;13.354;2022-07-29T03:19:37;18.20;78.00
5027;DHT22;2532;52.480;13.354;2022-07-29T03:22:06;18.20;78.20
5027;DHT22;2532;52.480;13.354;2022-07-29T03:24:36;18.20;78.20
5027;DHT22;2532;52.480;13.354;2022-07-29T03:27:04;18.20;78.20
5027;DHT22;2532;52.480;13.354;2022-07-29T03:29:32;18.20;78.20
5027;DHT22;2532;52.480;13.354;2022-07-29T03:31:59;18.20;78.20
5027;DHT22;2532;52.480;13.354;2022-07-29T03:34:25;18.20;78.30
5027;DHT22;2532;52.480;13.354;2022-07-29T03:36:52;18.20;78.20
5027;DHT22;2532;52.480;13.354;2022-07-29T03:39:23;18.30;78.30
5027;DHT22;2532;52.480;13.354;2022-07-29T03:41:53;18.30;78.30
5027;DHT22;2532;52.480;13.354;2022-07-29T03:44:22;18.20;78.00
5027;DHT22;2532;52.480;13.354;2022-07-29T03:46:51;18.20;78.10
5027;DHT22;2532;52.480;13.354;2022-07-29T03:49:20;18.30;78.30
5027;DHT22;2532;52.480;13.354;2022-07-29T03:51:48;18.20;78.30
5027;DHT22;2532;52.480;13.354;2022-07-29T03:54:15;18.20;78.30
5027;DHT22;2532;52.480;13.354;2022-07-29T03:56:45;18.20;78.30
5027;DHT22;2532;52.480;13.354;2022-07-29T03:59:13;18.20;78.20
5027;DHT22;2532;52.480;13.354;2022-07-29T04:01:41;18.20;78.20
5027;DHT22;2532;52.480;13.354;2022-07-29T04:04:08;18.20;78.20
5027;DHT22;2532;52.480;13.354;2022-07-29T04:06:39;18.30;78.20
5027;DHT22;2532;52.480;13.354;2022-07-29T04:09:07;18.30;78.10
5027;DHT22;2532;52.480;13.354;2022-07-29T04:11:34;18.30;77.90
5027;DHT22;2532;52.480;13.354;2022-07-29T04:14:03;18.30;78.10
5027;DHT22;2532;52.480;13.354;2022-07-29T04:16:31;18.40;77.90
5027;DHT22;2532;52.480;13.354;2022-07-29T04:18:58;18.40;77.80
5027;DHT22;2532;52.480;13.354;2022-07-29T04:21:25;18.40;77.60
5027;DHT22;2532;52.480;13.354;2022-07-29T04:23:52;18.40;77.50
5027;DHT22;2532;52.480;13.354;2022-07-29T04:26:19;18.40;77.50
5027;DHT22;2532;52.480;13.354;2022-07-29T04:28:46;18.40;77.50
5027;DHT22;2532;52.480;13.354;2022-07-29T04:31:14;18.40;77.50
5027;DHT22;2532;52.480;13.354;2022-07-29T04:33:41;18.40;78.20
5027;DHT22;2532;52.480;13.354;2022-07-29T04:36:08;18.30;77.60
5027;DHT22;2532;52.480;13.354;2022-07-29T04:38:36;18.30;77.60
5027;DHT22;2532;52.480;13.354;2022-07-29T04:41:03;18.30;77.60
5027;DHT22;2532;52.480;13.354;2022-07-29T04:43:32;18.30;77.60
5027;DHT22;2532;52.480;13.354;2022-07-29T04:45:59;18.40;77.90
5027;DHT22;2532;52.480;13.354;2022-07-29T04:48:27;18.40;77.60
5027;DHT22;2532;52.480;13.354;2022-07-29T04:50:54;18.40;77.60
5027;DHT22;2532;52.480;13.354;2022-07-29T04:53:21;18.40;77.50
5027;DHT22;2532;52.480;13.354;2022-07-29T04:55:48;18.50;77.40
5027;DHT22;2532;52.480;13.354;2022-07-29T04:58:15;18.50;77.40
5027;DHT22;2532;52.480;13.354;2022-07-29T05:00:41;18.50;77.20
5027;DHT22;2532;52.480;13.354;2022-07-29T05:03:09;18.50;77.00
5027;DHT22;2532;52.480;13.354;2022-07-29T05:05:37;18.50;77.10
5027;DHT22;2532;52.480;13.354;2022-07-29T05:08:04;18.50;77.20
5027;DHT22;2532;52.480;13.354;2022-07-29T05:10:31;18.50;77.10
5027;DHT22;2532;52.480;13.354;2022-07-29T05:12:58;18.60;77.20
5027;DHT22;2532;52.480;13.354;2022-07-29T05:15:25;18.70;77.10
5027;DHT22;2532;52.480;13.354;2022-07-29T05:17:52;18.70;76.80
5027;DHT22;2532;52.480;13.354;2022-07-29T05:20:18;18.80;76.40
5027;DHT22;2532;52.480;13.354;2022-07-29T05:22:52;18.80;76.00
5027;DHT22;2532;52.480;13.354;2022-07-29T05:25:19;19.00;76.30
5027;DHT22;2532;52.480;13.354;2022-07-29T05:27:46;19.00;75.90
5027;DHT22;2532;52.480;13.354;2022-07-29T05:30:13;19.10;75.60
5027;DHT22;2532;52.480;13.354;2022-07-29T05:32:40;19.10;75.50
5027;DHT22;2532;52.480;13.354;2022-07-29T05:35:08;19.20;75.50
5027;DHT22;2532;52.480;13.354;2022-07-29T05:37:35;19.10;75.30
5027;DHT22;2532;52.480;13.354;2022-07-29T05:40:04;19.10;75.30
5027;DHT22;2532;52.480;13.354;2022-07-29T05:42:31;19.10;75.00
5027;DHT22;2532;52.480;13.354;2022-07-29T05:44:58;19.20;75.30
5027;DHT22;2532;52.480;13.354;2022-07-29T05:47:25;19.20;75.10
5027;DHT22;2532;52.480;13.354;2022-07-29T05:49:52;19.30;75.00
5027;DHT22;2532;52.480;13.354;2022-07-29T05:52:20;19.40;74.90
5027;DHT22;2532;52.480;13.354;2022-07-29T05:54:47;19.50;74.80
5027;DHT22;2532;52.480;13.354;2022-07-29T05:57:19;19.50;74.50
5027;DHT22;2532;52.480;13.354;2022-07-29T05:59:46;19.60;74.40
5027;DHT22;2532;52.480;13.354;2022-07-29T06:02:14;19.60;73.90
5027;DHT22;2532;52.480;13.354;2022-07-29T06:04:41;19.60;74.00
5027;DHT22;2532;52.480;13.354;2022-07-29T06:07:07;19.70;73.80
5027;DHT22;2532;52.480;13.354;2022-07-29T06:09:34;19.80;73.50
5027;DHT22;2532;52.480;13.354;2022-07-29T06:12:01;19.80;73.50
5027;DHT22;2532;52.480;13.354;2022-07-29T06:14:30;19.80;73.20
5027;DHT22;2532;52.480;13.354;2022-07-29T06:16:58;19.90;73.40
5027;DHT22;2532;52.480;13.354;2022-07-29T06:19:24;19.90;73.50
5027;DHT22;2532;52.480;13.354;2022-07-29T06:21:51;19.90;73.10
5027;DHT22;2532;52.480;13.354;2022-07-29T06:24:18;19.90;73.10
5027;DHT22;2532;52.480;13.354;2022-07-29T06:26:45;20.00;73.20
5027;DHT22;2532;52.480;13.354;2022-07-29T06:29:12;20.10;73.40
5027;DHT22;2532;52.480;13.354;2022-07-29T06:31:40;20.10;73.10
5027;DHT22;2532;52.480;13.354;2022-07-29T06:34:07;20.20;73.00
5027;DHT22;2532;52.480;13.354;2022-07-29T06:36:34;20.20;72.80
5027;DHT22;2532;52.480;13.354;2022-07-29T06:39:04;20.30;72.70
5027;DHT22;2532;52.480;13.354;2022-07-29T06:41:31;20.30;72.70
5027;DHT22;2532;52.480;13.354;2022-07-29T06:43:58;20.40;72.80
5027;DHT22;2532;52.480;13.354;2022-07-29T06:46:25;20.50;72.60
5027;DHT22;2532;52.480;13.354;2022-07-29T06:48:54;20.50;72.50
5027;DHT22;2532;52.480;13.354;2022-07-29T06:51:21;20.60;72.40
5027;DHT22;2532;52.480;13.354;2022-07-29T06:53:48;20.60;72.40
5027;DHT22;2532;52.480;13.354;2022-07-29T06:56:15;20.60;72.20
5027;DHT22;2532;52.480;13.354;2022-07-29T06:58:42;20.70;72.60
5027;DHT22;2532;52.480;13.354;2022-07-29T07:01:09;20.80;72.40
5027;DHT22;2532;52.480;13.354;2022-07-29T07:03:37;20.90;71.60
5027;DHT22;2532;52.480;13.354;2022-07-29T07:06:06;20.90;71.50
5027;DHT22;2532;52.480;13.354;2022-07-29T07:08:33;20.90;71.30
5027;DHT22;2532;52.480;13.354;2022-07-29T07:11:00;21.00;72.00
5027;DHT22;2532;52.480;13.354;2022-07-29T07:13:27;21.10;70.80
5027;DHT22;2532;52.480;13.354;2022-07-29T07:16:01;21.20;70.80
5027;DHT22;2532;52.480;13.354;2022-07-29T07:18:30;21.20;70.80
5027;DHT22;2532;52.480;13.354;2022-07-29T07:20:57;21.30;70.70
5027;DHT22;2532;52.480;13.354;2022-07-29T07:23:29;21.40;70.40
5027;DHT22;2532;52.480;13.354;2022-07-29T07:26:00;21.40;70.40
5027;DHT22;2532;52.480;13.354;2022-07-29T07:28:29;21.60;70.30
5027;DHT22;2532;52.480;13.354;2022-07-29T07:30:58;21.60;70.00
5027;DHT22;2532;52.480;13.354;2022-07-29T07:33:25;21.70;69.70
5027;DHT22;2532;52.480;13.354;2022-07-29T07:35:52;21.80;69.80
5027;DHT22;2532;52.480;13.354;2022-07-29T07:38:19;21.90;69.20
5027;DHT22;2532;52.480;13.354;2022-07-29T07:40:47;22.00;68.80
5027;DHT22;2532;52.480;13.354;2022-07-29T07:43:14;22.10;69.10
5027;DHT22;2532;52.480;13.354;2022-07-29T07:45:41;22.20;69.10
5027;DHT22;2532;52.480;13.354;2022-07-29T07:48:08;22.40;68.40
5027;DHT22;2532;52.480;13.354;2022-07-29T07:50:35;22.40;68.00
5027;DHT22;2532;52.480;13.354;2022-07-29T07:53:02;22.50;67.60
5027;DHT22;2532;52.480;13.354;2022-07-29T07:55:29;22.60;67.00
5027;DHT22;2532;52.480;13.354;2022-07-29T07:57:57;22.70;66.70
5027;DHT22;2532;52.480;13.354;2022-07-29T08:00:24;22.80;66.90
5027;DHT22;2532;52.480;13.354;2022-07-29T08:02:51;22.90;66.50
5027;DHT22;2532;52.480;13.354;2022-07-29T08:05:18;23.10;66.40
5027;DHT22;2532;52.480;13.354;2022-07-29T08:07:45;23.20;66.20
5027;DHT22;2532;52.480;13.354;2022-07-29T08:10:13;23.30;65.20
5027;DHT22;2532;52.480;13.354;2022-07-29T08:12:40;23.40;65.70
5027;DHT22;2532;52.480;13.354;2022-07-29T08:15:09;23.50;63.80
5027;DHT22;2532;52.480;13.354;2022-07-29T08:17:38;23.60;64.10
5027;DHT22;2532;52.480;13.354;2022-07-29T08:20:05;23.60;62.50
5027;DHT22;2532;52.480;13.354;2022-07-29T08:22:32;23.60;62.30
5027;DHT22;2532;52.480;13.354;2022-07-29T08:24:59;23.70;64.20
5027;DHT22;2532;52.480;13.354;2022-07-29T08:27:26;23.80;63.20
5027;DHT22;2532;52.480;13.354;2022-07-29T08:29:55;24.00;63.00
5027;DHT22;2532;52.480;13.354;2022-07-29T08:32:24;24.10;62.30
5027;DHT22;2532;52.480;13.354;2022-07-29T08:34:51;24.20;61.80
5027;DHT22;2532;52.480;13.354;2022-07-29T08:37:17;24.30;62.10
5027;DHT22;2532;52.480;13.354;2022-07-29T08:39:44;24.40;61.70
5027;DHT22;2532;52.480;13.354;2022-07-29T08:42:11;24.50;61.30
5027;DHT22;2532;52.480;13.354;2022-07-29T08:44:38;24.60;62.10
5027;DHT22;2532;52.480;13.354;2022-07-29T08:47:05;24.80;61.70
5027;DHT22;2532;52.480;13.354;2022-07-29T08:49:34;24.90;60.60
5027;DHT22;2532;52.480;13.354;2022-07-29T08:52:02;25.00;59.00
5027;DHT22;2532;52.480;13.354;2022-07-29T08:54:29;25.00;58.00
5027;DHT22;2532;52.480;13.354;2022-07-29T08:56:57;24.90;58.10
5027;DHT22;2532;52.480;13.354;2022-07-29T08:59:26;24.90;58.20
5027;DHT22;2532;52.480;13.354;2022-07-29T09:01:54;24.80;57.90
5027;DHT22;2532;52.480;13.354;2022-07-29T09:04:22;24.80;58.20
5027;DHT22;2532;52.480;13.354;2022-07-29T09:06:54;24.80;58.10
5027;DHT22;2532;52.480;13.354;2022-07-29T09:09:23;24.80;58.30
5027;DHT22;2532;52.480;13.354;2022-07-29T09:11:50;24.70;58.50
5027;DHT22;2532;52.480;13.354;2022-07-29T09:14:18;24.80;58.60
5027;DHT22;2532;52.480;13.354;2022-07-29T09:16:47;24.90;60.00
5027;DHT22;2532;52.480;13.354;2022-07-29T09:19:27;25.00;58.10
5027;DHT22;2532;52.480;13.354;2022-07-29T09:21:57;25.20;57.10
5027;DHT22;2532;52.480;13.354;2022-07-29T09:24:23;25.30;56.80
5027;DHT22;2532;52.480;13.354;2022-07-29T09:26:51;25.40;56.40
5027;DHT22;2532;52.480;13.354;2022-07-29T09:29:20;25.40;55.60
5027;DHT22;2532;52.480;13.354;2022-07-29T09:31:50;25.50;55.60
5027;DHT22;2532;52.480;13.354;2022-07-29T09:34:22;25.50;55.40
5027;DHT22;2532;52.480;13.354;2022-07-29T09:36:51;25.50;55.30
5027;DHT22;2532;52.480;13.354;2022-07-29T09:39:29;25.40;55.10
5027;DHT22;2532;52.480;13.354;2022-07-29T09:41:57;25.40;54.20
5027;DHT22;2532;52.480;13.354;2022-07-29T09:44:25;25.50;55.30
5027;DHT22;2532;52.480;13.354;2022-07-29T09:46:59;25.60;54.10
5027;DHT22;2532;52.480;13.354;2022-07-29T09:49:31;25.60;53.70
5027;DHT22;2532;52.480;13.354;2022-07-29T09:52:06;25.70;53.00
5027;DHT22;2532;52.480;13.354;2022-07-29T09:54:35;25.70;52.50
5027;DHT22;2532;52.480;13.354;2022-07-29T09:57:04;25.80;52.50
5027;DHT22;2532;52.480;13.354;2022-07-29T09:59:32;25.80;52.60
5027;DHT22;2532;52.480;13.354;2022-07-29T10:02:01;25.90;52.40
5027;DHT22;2532;52.480;13.354;2022-07-29T10:04:38;25.90;52.20
5027;DHT22;2532;52.480;13.354;2022-07-29T10:07:05;26.00;51.90
5027;DHT22;2532;52.480;13.354;2022-07-29T10:09:33;26.00;52.00
5027;DHT22;2532;52.480;13.354;2022-07-29T10:12:09;26.10;51.80
5027;DHT22;2532;52.480;13.354;2022-07-29T10:14:37;26.20;50.70
5027;DHT22;2532;52.480;13.354;2022-07-29T10:17:06;26.30;50.40
5027;DHT22;2532;52.480;13.354;2022-07-29T10:19:35;26.50;51.20
5027;DHT22;2532;52.480;13.354;2022-07-29T10:22:04;26.60;49.50
5027;DHT22;2532;52.480;13.354;2022-07-29T10:24:33;26.70;49.60
5027;DHT22;2532;52.480;13.354;2022-07-29T10:27:01;26.80;48.30
5027;DHT22;2532;52.480;13.354;2022-07-29T10:29:30;26.80;47.90
5027;DHT22;2532;52.480;13.354;2022-07-29T10:32:13;26.90;47.60
5027;DHT22;2532;52.480;13.354;2022-07-29T10:35:01;26.90;47.70
5027;DHT22;2532;52.480;13.354;2022-07-29T10:37:43;27.00;47.30
5027;DHT22;2532;52.480;13.354;2022-07-29T10:40:22;26.90;46.70
5027;DHT22;2532;52.480;13.354;2022-07-29T10:43:17;27.00;46.60
5027;DHT22;2532;52.480;13.354;2022-07-29T10:45:47;27.00;46.60
5027;DHT22;2532;52.480;13.354;2022-07-29T10:48:14;27.20;46.40
5027;DHT22;2532;52.480;13.354;2022-07-29T10:50:55;27.20;46.30
5027;DHT22;2532;52.480;13.354;2022-07-29T10:53:23;27.20;46.00
5027;DHT22;2532;52.480;13.354;2022-07-29T10:55:51;27.20;46.20
5027;DHT22;2532;52.480;13.354;2022-07-29T10:58:20;27.30;46.20
5027;DHT22;2532;52.480;13.354;2022-07-29T11:00:50;27.30;46.00
5027;DHT22;2532;52.480;13.354;2022-07-29T11:03:43;27.40;48.60
5027;DHT22;2532;52.480;13.354;2022-07-29T11:06:11;27.40;46.90
5027;DHT22;2532;52.480;13.354;2022-07-29T11:08:37;27.60;45.80
5027;DHT22;2532;52.480;13.354;2022-07-29T11:11:34;27.60;46.60
5027;DHT22;2532;52.480;13.354;2022-07-29T11:14:02;27.70;45.40
5027;DHT22;2532;52.480;13.354;2022-07-29T11:17:00;27.70;45.30
5027;DHT22;2532;52.480;13.354;2022-07-29T11:19:31;27.70;44.70
5027;DHT22;2532;52.480;13.354;2022-07-29T11:21:58;27.70;45.20
5027;DHT22;2532;52.480;13.354;2022-07-29T11:24:27;27.80;45.30
5027;DHT22;2532;52.480;13.354;2022-07-29T11:27:10;27.80;45.20
5027;DHT22;2532;52.480;13.354;2022-07-29T11:29:40;27.80;45.00
5027;DHT22;2532;52.480;13.354;2022-07-29T11:32:13;27.80;45.00
5027;DHT22;2532;52.480;13.354;2022-07-29T11:34:42;27.90;45.00
5027;DHT22;2532;52.480;13.354;2022-07-29T11:37:22;27.80;44.50
5027;DHT22;2532;52.480;13.354;2022-07-29T11:40:15;27.90;44.60
5027;DHT22;2532;52.480;13.354;2022-07-29T11:42:46;28.00;45.10
5027;DHT22;2532;52.480;13.354;2022-07-29T11:45:25;28.10;46.30
5027;DHT22;2532;52.480;13.354;2022-07-29T11:47:59;28.20;46.10
5027;DHT22;2532;52.480;13.354;2022-07-29T11:50:34;28.10;45.40
5027;DHT22;2532;52.480;13.354;2022-07-29T11:53:03;28.20;45.60
5027;DHT22;2532;52.480;13.354;2022-07-29T11:55:30;28.20;46.10
5027;DHT22;2532;52.480;13.354;2022-07-29T11:58:01;28.30;47.20
5027;DHT22;2532;52.480;13.354;2022-07-29T12:00:30;28.40;46.00
5027;DHT22;2532;52.480;13.354;2022-07-29T12:03:02;28.40;46.10
5027;DHT22;2532;52.480;13.354;2022-07-29T12:05:35;28.40;46.00
5027;DHT22;2532;52.480;13.354;2022-07-29T12:08:10;28.40;46.40
5027;DHT22;2532;52.480;13.354;2022-07-29T12:10:37;28.40;46.60
5027;DHT22;2532;52.480;13.354;2022-07-29T12:13:08;28.60;46.90
5027;DHT22;2532;52.480;13.354;2022-07-29T12:15:35;28.60;47.40
5027;DHT22;2532;52.480;13.354;2022-07-29T12:18:17;28.70;47.30
5027;DHT22;2532;52.480;13.354;2022-07-29T12:20:46;28.70;46.90
5027;DHT22;2532;52.480;13.354;2022-07-29T12:23:14;28.70;46.50
5027;DHT22;2532;52.480;13.354;2022-07-29T12:25:43;28.70;46.80
5027;DHT22;2532;52.480;13.354;2022-07-29T12:28:12;28.70;46.90
5027;DHT22;2532;52.480;13.354;2022-07-29T12:30:43;28.80;47.50
5027;DHT22;2532;52.480;13.354;2022-07-29T12:33:14;28.80;47.60
5027;DHT22;2532;52.480;13.354;2022-07-29T12:35:45;28.80;48.50
5027;DHT22;2532;52.480;13.354;2022-07-29T12:38:12;28.80;48.10
5027;DHT22;2532;52.480;13.354;2022-07-29T12:40:40;28.80;47.40
5027;DHT22;2532;52.480;13.354;2022-07-29T12:43:11;28.90;48.20
5027;DHT22;2532;52.480;13.354;2022-07-29T12:45:40;29.00;48.20
5027;DHT22;2532;52.480;13.354;2022-07-29T12:48:07;28.90;47.20
5027;DHT22;2532;52.480;13.354;2022-07-29T12:50:35;29.00;47.30
5027;DHT22;2532;52.480;13.354;2022-07-29T12:53:10;29.00;47.30
5027;DHT22;2532;52.480;13.354;2022-07-29T12:55:39;29.10;46.40
5027;DHT22;2532;52.480;13.354;2022-07-29T12:58:06;29.30;47.10
5027;DHT22;2532;52.480;13.354;2022-07-29T13:00:33;29.40;47.20
5027;DHT22;2532;52.480;13.354;2022-07-29T13:03:00;29.40;46.40
5027;DHT22;2532;52.480;13.354;2022-07-29T13:05:39;29.40;46.90
5027;DHT22;2532;52.480;13.354;2022-07-29T13:08:12;29.40;46.50
5027;DHT22;2532;52.480;13.354;2022-07-29T13:10:40;29.40;46.00
5027;DHT22;2532;52.480;13.354;2022-07-29T13:13:08;29.30;46.50
5027;DHT22;2532;52.480;13.354;2022-07-29T13:15:36;29.20;46.90
5027;DHT22;2532;52.480;13.354;2022-07-29T13:18:03;29.20;47.10
5027;DHT22;2532;52.480;13.354;2022-07-29T13:20:31;29.20;46.90
5027;DHT22;2532;52.480;13.354;2022-07-29T13:22:59;29.20;46.20
5027;DHT22;2532;52.480;13.354;2022-07-29T13:25:29;29.30;46.10
5027;DHT22;2532;52.480;13.354;2022-07-29T13:27:57;29.30;46.50
5027;DHT22;2532;52.480;13.354;2022-07-29T13:30:25;29.20;46.80
5027;DHT22;2532;52.480;13.354;2022-07-29T13:32:52;29.30;47.20
5027;DHT22;2532;52.480;13.354;2022-07-29T13:35:20;29.40;47.10
5027;DHT22;2532;52.480;13.354;2022-07-29T13:37:47;29.50;46.90
5027;DHT22;2532;52.480;13.354;2022-07-29T13:40:14;29.60;46.90
5027;DHT22;2532;52.480;13.354;2022-07-29T13:42:42;29.80;46.60
5027;DHT22;2532;52.480;13.354;2022-07-29T13:45:09;29.90;46.60
5027;DHT22;2532;52.480;13.354;2022-07-29T13:47:37;30.10;46.90
5027;DHT22;2532;52.480;13.354;2022-07-29T13:50:05;30.20;46.80
5027;DHT22;2532;52.480;13.354;2022-07-29T13:52:33;30.30;46.40
5027;DHT22;2532;52.480;13.354;2022-07-29T13:55:00;30.40;45.50
5027;DHT22;2532;52.480;13.354;2022-07-29T13:57:27;30.40;45.50
5027;DHT22;2532;52.480;13.354;2022-07-29T13:59:55;30.50;44.90
5027;DHT22;2532;52.480;13.354;2022-07-29T14:02:22;30.40;44.50
5027;DHT22;2532;52.480;13.354;2022-07-29T14:04:49;30.40;45.00
5027;DHT22;2532;52.480;13.354;2022-07-29T14:07:16;30.50;45.50
5027;DHT22;2532;52.480;13.354;2022-07-29T14:09:43;30.50;44.50
5027;DHT22;2532;52.480;13.354;2022-07-29T14:12:10;30.50;44.80
5027;DHT22;2532;52.480;13.354;2022-07-29T14:14:37;30.60;45.10
5027;DHT22;2532;52.480;13.354;2022-07-29T14:17:05;30.70;44.30
5027;DHT22;2532;52.480;13.354;2022-07-29T14:19:35;30.60;43.80
5027;DHT22;2532;52.480;13.354;2022-07-29T14:22:03;30.60;43.90
5027;DHT22;2532;52.480;13.354;2022-07-29T14:24:30;30.70;45.20
5027;DHT22;2532;52.480;13.354;2022-07-29T14:26:57;30.70;44.30
5027;DHT22;2532;52.480;13.354;2022-07-29T14:29:24;30.70;44.00
5027;DHT22;2532;52.480;13.354;2022-07-29T14:31:51;30.80;43.90
5027;DHT22;2532;52.480;13.354;2022-07-29T14:34:19;30.80;44.20
5027;DHT22;2532;52.480;13.354;2022-07-29T14:36:46;30.70;42.70
5027;DHT22;2532;52.480;13.354;2022-07-29T14:39:13;30.70;42.80
5027;DHT22;2532;52.480;13.354;2022-07-29T14:41:41;30.80;44.80
5027;DHT22;2532;52.480;13.354;2022-07-29T14:44:08;30.90;42.90
5027;DHT22;2532;52.480;13.354;2022-07-29T14:46:35;31.00;42.30
5027;DHT22;2532;52.480;13.354;2022-07-29T14:49:02;30.90;42.10
5027;DHT22;2532;52.480;13.354;2022-07-29T14:51:30;31.00;42.20
5027;DHT22;2532;52.480;13.354;2022-07-29T14:53:57;31.10;44.20
5027;DHT22;2532;52.480;13.354;2022-07-29T14:56:24;31.20;42.50
5027;DHT22;2532;52.480;13.354;2022-07-29T14:58:50;31.30;42.50
5027;DHT22;2532;52.480;13.354;2022-07-29T15:01:18;31.30;42.50
5027;DHT22;2532;52.480;13.354;2022-07-29T15:03:44;31.30;42.70
5027;DHT22;2532;52.480;13.354;2022-07-29T15:06:11;31.30;42.80
5027;DHT22;2532;52.480;13.354;2022-07-29T15:08:39;31.30;43.00
5027;DHT22;2532;52.480;13.354;2022-07-29T15:11:06;31.30;43.70
5027;DHT22;2532;52.480;13.354;2022-07-29T15:13:33;31.40;42.20
5027;DHT22;2532;52.480;13.354;2022-07-29T15:16:00;31.40;42.00
5027;DHT22;2532;52.480;13.354;2022-07-29T15:18:27;31.30;41.80
5027;DHT22;2532;52.480;13.354;2022-07-29T15:20:54;31.20;41.70
5027;DHT22;2532;52.480;13.354;2022-07-29T15:23:21;31.10;43.30
5027;DHT22;2532;52.480;13.354;2022-07-29T15:25:49;31.10;41.90
5027;DHT22;2532;52.480;13.354;2022-07-29T15:28:16;31.10;41.60
5027;DHT22;2532;52.480;13.354;2022-07-29T15:30:42;31.00;41.60
5027;DHT22;2532;52.480;13.354;2022-07-29T15:33:09;30.90;41.80
5027;DHT22;2532;52.480;13.354;2022-07-29T15:35:36;30.90;42.00
5027;DHT22;2532;52.480;13.354;2022-07-29T15:38:03;31.00;43.00
5027;DHT22;2532;52.480;13.354;2022-07-29T15:40:30;31.20;42.10
5027;DHT22;2532;52.480;13.354;2022-07-29T15:42:58;31.30;41.80
5027;DHT22;2532;52.480;13.354;2022-07-29T15:45:35;31.30;41.50
5027;DHT22;2532;52.480;13.354;2022-07-29T15:48:02;31.30;41.20
5027;DHT22;2532;52.480;13.354;2022-07-29T15:50:29;31.40;41.30
5027;DHT22;2532;52.480;13.354;2022-07-29T15:52:56;31.40;41.10
5027;DHT22;2532;52.480;13.354;2022-07-29T15:55:23;31.60;41.10
5027;DHT22;2532;52.480;13.354;2022-07-29T15:57:50;31.70;41.10